Flat Lick, Kentucky
Current Conditions -  °F | °C
As of 2:15 PM on Monday 20 Oct 2014 (Local Time) from K1A6 Reporting Station
Broken Clouds Broken Clouds  
Wind Chill: 65°   Ceiling: 12000
Heat Index: 65°   Visibility: 10mi
Dew Point: 46°   Wind: 10mph
Humidity: 51%   Direction: 210°SSW
Pressure: 30.02"   Gusts: 16mph
Location:  36.83°N, 83.77°W
Report Text: K1A6 201815Z AUTO 21009G14KT 10SM BKN120 18/08 A3002 RMK AO2 T01810079
Loading
Personal Weather Stations






























Interactive Weather Map
Tropical Storm Tracking
New forecast layout! Learn more

10-Day Weather Forecast

Advertisements
Track Severe Weather on mobile